Terminal Aerodrome Forecast
Issued by NWS Tuscon, AZ

Home | Current Version | Previous Version | Text Only | Print | Product List | Glossary On
Versions: 1 2 3 4 5 6 7 8 9 10 11 12 13 14 15
000
FTUS45 KTWC 191700
TAFDUG
TAF
KDUG 191720Z 1918/2018 20005KT P6SM VCSH BKN060 OVC200
     FM192000 22015G25KT P6SM VCSH BKN060 BKN100
     FM200300 35008KT P6SM VCSH SCT070 BKN100
     FM200600 01005KT P6SM SCT060=

USA.gov is the U.S. government's official web portal to all federal, state and local government web resources and services.